KMKC

Charles B Wheeler Downtown Airport

Kansas City, Missouri, USA
METAR KMKC 160054Z 00000KT 10SM CLR 02/M06 A3016 RMK AO2 SLP219 T00171056
Observed Flight Rules
Dec-16 @ 00:54 UTC (21 minutes ago) Visual Flight Rules
Visibility Clouds
10 miles
  • Clear skies
Temperatures Readings
Current 2°C / 36°F
Dewpoint -6°C / 21°F
Humidity 56%
Altimeter 30.16" Hg
Pressure 1021.9 hPa
Elevation 227
METAR KMKC 160054Z 00000KT 10SM CLR 02/M06 A3016 RMK AO2 SLP219 T00171056
Observed Flight Rules
Dec-16 @ 00:54 UTC
(21 minutes ago)
VFR
Clouds
  • Clear skies
Temperature Dewpoint
2°C / 36°F -6°C / 21°F
Humidity Altimeter Pressure
56% 30.16" Hg 1021.9 hPa